Mombasa, Kenya

8:02 AM EAT on February 14, 2016 (GMT +0300)
Moi | | Change Station
CLOSE
Current Station
Airport
Location: Mombasa,
Elevation: 180 ft
Nearby Weather Stations

Elev 180 ft 4.03 °S, 39.62 °E | Updated 1 hour ago

Scattered Clouds
Scattered Clouds
77 °F
Feels Like 77 °F
N
4
Wind Variable Wind from WNW

Today
High -- | Low -- °F
--% Chance of Precip.
Yesterday
High -- | Low -- °F
Precip. -- in
Pressure 29.92 in
Visibility 6.2 miles
Clouds Scattered Clouds 2000 ft
Dew Point 73 °F
Humidity 89%
Rainfall 0.00 in
Snow Depth Not available.
6:28 AM 6:42 PM
Waxing Crescent, 37% visible
METAR HKMO 140400Z 30003KT 9999 SCT020 25/23 Q1013 NOSIG
Pressure 29.92 in
Visibility 6.2 miles
Clouds Scattered Clouds 2000 ft
Dew Point 73 °F
Humidity 89%
Rainfall 0.00 in
Snow Depth Not available.
6:28 AM 6:42 PM
Waxing Crescent, 37% visible
METAR HKMO 140400Z 30003KT 9999 SCT020 25/23 Q1013 NOSIG

10-Day Weather Forecast

No radar image for this location.
×

Almanac

Astronomy

Feb. 14, 2016 Rise Set
Actual Time
Civil Twilight
Nautical Twilight
Astronomical Twilight
Moon
Length of Visible Light
Length of Day
Tomorrow will be .
, % of the Moon is Illuminated

Today's Extremes

Country Highs Country Lows

Community

WunderPhotos

Upload Photos

1,892,748 photos uploaded!

WunderBlog® & News

Nearby

Air Quality

  Air Quality AQ Index Pollutant
Not available.

Snow Depth

Station Depth Elevation

Earthquake Activity

City Distance Mag. Time & Date
Minimum magnitude displayed is 2.5.

Coastal Water Temperatures

Place Temperature

Stations

Nearby Weather Stations

Station Location Temp. Windchill Dew Point Humidity Wind Precip. Elev Updated Type